SVPL1: Red River at Shreveport Site 2

                                SHEF ID:       SVPL1     Red River at Shreveport Site 2
STATION TYPE:

PRECIP STAGE RIV-FLOW VOLTAGE
in ft cfs volt
Ccp-Rev Ccp-Rev Ccp-Rev Ccp-Rev
(America/Chicago)
07/09 00:00 0.00 15.47 19760 12.84
07/09 01:00 0.00 15.40 19200 12.83
07/09 02:00 0.00 15.46 19680 12.83
07/09 03:00 0.00 15.39 19120 12.82
07/09 04:00 0.00 15.52 20160 12.81
07/09 05:00 0.00 15.52 20160 12.80
07/09 06:00 0.00 15.50 20000 12.80
07/09 07:00 0.00 15.48 19840 13.03
07/09 08:00 0.00 15.34 18720 13.36
07/09 09:00 0.00 15.39 19120 13.09
07/09 10:00 0.00 15.34 18720 13.07
07/09 11:00 0.00 15.42 19360 13.09
07/09 12:00 0.00 15.33 18640 13.08
07/09 13:00 0.00 15.39 19120 13.07
07/09 14:00 0.00 15.36 18880 13.07
07/09 15:00 0.00 15.19 17520 13.09
07/09 16:00 0.00 15.25 18000 13.06
07/09 17:00 0.00 15.26 18080 13.09
07/09 18:00 0.00 15.30 18400 13.09
07/09 19:00 0.00 15.27 18160 12.93
07/09 20:00 0.00 15.19 17520 12.90
07/09 21:00 0.00 15.24 17920 12.87
07/09 22:00 0.00 15.19 17520 12.90
07/09 23:00 ---- ---- ---- ----
Data processed at Fri 10Jul2026 04:24 GMT

NOTICE: If you are parsing this page

Please convert to using our Data API. Starting early 2026 we will be migrating to: https://water.usace.army.mil with modern pages rendered in JavaScript. When this migration completes you will no longer be able to scrape this page! CWMSDataAPI (CDA)

Timeseries IDs (TSIDs)

TSIDs used from left to right in the data table
SHRE.Precip-Inc.Total.1Hour.1Hour.Ccp-Rev
SHRE.Stage.Inst.1Hour.0.Ccp-Rev
SHRE.Flow.Inst.1Hour.0.Ccp-Rev
SHRE.Volt-Battery.Inst.1Hour.0.Ccp-Rev

                            

All information presented herein is the property of the government of the United States of America and may be revised or deleted at any time without prior notice. Dissemination of this information without the expressed written consent of the Public Affairs Office, Tulsa District U.S. Army Corps of Engineers is strictly prohibited. These data are gathered electronically and, as presented, have NOT undergone any form of quality control. These data are NOT guaranteed to be valid or correct.